UPDATE Mit 1. Juli wird auf eine neue Wetterseite umgestellt
Wer schon probieren möchte kann unter https://wetter.hildner.at gerne testen
Die Seite befindet sich noch im Aufbau

There is a communication problem. Go directly to the Meteoalarm site : www.meteoalarm.eu and check the Weather-warnings there .


Rindlberg West more information Rindlberg West


Stuetzi - Rindlberg Ost more information Stuetzi - Rindlberg Ost


Rain radar more information rain snow radar


You find our weather info also at:

Weather Underground

AWEKAS



IOBERSTE7 History tables / reports. Script startWUhistory.php

Select another period ( hide this area )

Units Period Custom range Directly to
Metric English Both
Daily Weekly Monthly Yearly
use both date-selectors for a custom range
previous Day
With this date

WeatherUnderground graphs for this period ( click here ) Loading the graph can take up to a minute!


Daily Summary for Saturday Aug 20 2022
Time Temp. ( °C ) Dew pt. ( °C ) Wind ( km/h ) from Gust ( km/h ) Pressure ( hPa ) Humid.( % ) Rainrate ( cm )
High16,1 13,9 13,0 WSW ( 248/540 ) 21,0 1015,4 88 -
Average15,7 13,6 8,4 WSW #26/64 11,9 1014,3 87 -
Low15,2 13,2 -   0,0 1013,3 86 -
Daily Tabular details for Saturday Aug 20 2022
Time Temp. ( °C ) Dew pt. ( °C ) Wind ( km/h ) from Gust ( km/h ) Pressure ( hPa ) Humid.( % ) Rainrate ( cm )
00:02 15,6 13,3 8,0 WSW 12,0 1015,4 86 -
00:09 15,7 13,4 6,0 WSW 8,0 1015,4 86 -
00:14 15,7 13,4 8,0 SW 11,0 1014,3 86 -
00:19 15,8 13,4 8,0 SSW 12,0 1014,3 86 -
00:24 15,8 13,6 8,0 SW 12,0 1014,3 87 -
00:29 15,8 13,6 8,0 SW 12,0 1014,3 87 -
00:34 15,9 13,7 11,0 SW 15,0 1014,2 87 -
00:39 15,9 13,7 8,0 SSW 12,0 1014,2 87 -
00:44 15,9 13,7 8,0 SSW 11,0 1014,2 87 -
00:49 16,0 13,8   Calm   1014,2 87 -
00:54 16,0 13,8   Calm   1014,2 87 -
00:59 16,0 13,8 5,0 South 7,0 1014,2 87 -
01:04 16,0 13,8 8,0 SW 12,0 1014,2 87 -
01:09 16,1 13,9 8,0 West 12,0 1014,2 87 -
01:14 16,1 13,9 7,0 SW 9,0 1014,2 87 -
01:19 16,1 13,9 8,0 WSW 12,0 1014,2 87 -
01:24 16,1 13,9 8,0 West 12,0 1014,2 87 -
01:29 16,1 13,9 7,0 West 12,0 1014,2 87 -
01:34 16,1 13,9 12,0 WSW 17,0 1014,2 87 -
01:39 16,1 13,9 10,0 SW 15,0 1014,2 87 -
01:44 16,1 13,9 12,0 WSW 17,0 1014,2 87 -
01:49 16,1 13,9 12,0 WSW 16,0 1014,2 87 -
01:54 16,0 13,8 10,0 WSW 16,0 1014,2 87 -
01:59 16,0 13,8 11,0 WSW 16,0 1014,2 87 -
02:04 16,0 13,8 11,0 WSW 13,0 1014,2 87 -
02:09 16,0 13,8 9,0 WSW 12,0 1014,2 87 -
02:14 15,9 13,7 10,0 WSW 12,0 1014,2 87 -
02:19 15,9 13,7 10,0 West 12,0 1014,2 87 -
02:24 15,9 13,7 9,0 WSW 15,0 1014,3 87 -
02:29 15,8 13,6 11,0 West 13,0 1014,3 87 -
02:34 15,8 13,6 9,0 WSW 11,0 1014,3 87 -
02:39 15,8 13,6 10,0 WSW 12,0 1014,3 87 -
02:44 15,7 13,6 8,0 SW 10,0 1014,3 88 -
02:49 15,7 13,7 11,0 WSW 14,0 1014,3 88 -
02:54 15,7 13,7 8,0 WSW 11,0 1014,3 88 -
02:59 15,7 13,7 11,0 WSW 19,0 1014,3 88 -
03:04 15,7 13,7 11,0 WSW 14,0 1014,3 88 -
03:09 15,7 13,7 11,0 WSW 14,0 1014,3 88 -
03:14 15,6 13,6 8,0 SW 12,0 1014,3 88 -
03:19 15,6 13,6 13,0 WSW 21,0 1014,3 88 -
03:24 15,6 13,6 8,0 West 12,0 1014,3 88 -
03:29 15,6 13,6 7,0 West 12,0 1014,4 88 -
03:34 15,5 13,5 8,0 West 10,0 1014,4 88 -
03:39 15,5 13,5 10,0 WSW 16,0 1014,4 88 -
03:44 15,5 13,5 9,0 WSW 13,0 1014,4 88 -
03:49 15,4 13,4 8,0 West 12,0 1014,4 88 -
03:54 15,4 13,4 9,0 West 12,0 1014,4 88 -
03:59 15,4 13,4 6,0 WSW 8,0 1013,3 88 -
04:04 15,4 13,4 7,0 SW 11,0 1013,3 88 -
04:09 15,4 13,4 8,0 SW 8,0 1013,3 88 -
04:14 15,3 13,3 6,0 WNW 8,0 1014,4 88 -
04:19 15,3 13,3 6,0 West 10,0 1014,4 88 -
04:24 15,3 13,3 8,0 WSW 12,0 1014,4 88 -
04:29 15,3 13,3 9,0 SW 12,0 1014,4 88 -
04:34 15,3 13,3 9,0 SW 12,0 1014,4 88 -
04:39 15,3 13,3 5,0 SW 8,0 1014,4 88 -
04:44 15,3 13,3 6,0 WSW 8,0 1014,4 88 -
04:49 15,3 13,3 6,0 SW 7,0 1014,4 88 -
04:54 15,3 13,3 7,0 SW 11,0 1014,4 88 -
04:59 15,3 13,3 7,0 WSW 11,0 1014,4 88 -
05:04 15,3 13,3 9,0 SW 12,0 1014,4 88 -
05:09 15,3 13,3 10,0 SW 16,0 1014,5 88 -
05:14 15,2 13,2 10,0 SW 14,0 1014,5 88 -
05:19 15,2 13,2 11,0 SW 14,0 1014,5 88 -
Daily Summary for Saturday Aug 20 2022
Time Temp. ( °C ) Dew pt. ( °C ) Wind ( km/h ) from Gust ( km/h ) Pressure ( hPa ) Humid.( % ) Rainrate ( cm )
High16,1 13,9 13,0 WSW ( 248/540 ) 21,0 1015,4 88 -
Average15,7 13,6 8,4 WSW #26/64 11,9 1014,3 87 -
Low15,2 13,2 -   0,0 1013,3 86 -
Daily Tabular details for Saturday Aug 20 2022
Time Temp. ( °C ) Dew pt. ( °C ) Wind ( km/h ) from Gust ( km/h ) Pressure ( hPa ) Humid.( % ) Rainrate ( cm )
00:02 15,6 13,3 8,0 WSW 12,0 1015,4 86 -
00:09 15,7 13,4 6,0 WSW 8,0 1015,4 86 -
00:14 15,7 13,4 8,0 SW 11,0 1014,3 86 -
00:19 15,8 13,4 8,0 SSW 12,0 1014,3 86 -
00:24 15,8 13,6 8,0 SW 12,0 1014,3 87 -
00:29 15,8 13,6 8,0 SW 12,0 1014,3 87 -
00:34 15,9 13,7 11,0 SW 15,0 1014,2 87 -
00:39 15,9 13,7 8,0 SSW 12,0 1014,2 87 -
00:44 15,9 13,7 8,0 SSW 11,0 1014,2 87 -
00:49 16,0 13,8   Calm   1014,2 87 -
00:54 16,0 13,8   Calm   1014,2 87 -
00:59 16,0 13,8 5,0 South 7,0 1014,2 87 -
01:04 16,0 13,8 8,0 SW 12,0 1014,2 87 -
01:09 16,1 13,9 8,0 West 12,0 1014,2 87 -
01:14 16,1 13,9 7,0 SW 9,0 1014,2 87 -
01:19 16,1 13,9 8,0 WSW 12,0 1014,2 87 -
01:24 16,1 13,9 8,0 West 12,0 1014,2 87 -
01:29 16,1 13,9 7,0 West 12,0 1014,2 87 -
01:34 16,1 13,9 12,0 WSW 17,0 1014,2 87 -
01:39 16,1 13,9 10,0 SW 15,0 1014,2 87 -
01:44 16,1 13,9 12,0 WSW 17,0 1014,2 87 -
01:49 16,1 13,9 12,0 WSW 16,0 1014,2 87 -
01:54 16,0 13,8 10,0 WSW 16,0 1014,2 87 -
01:59 16,0 13,8 11,0 WSW 16,0 1014,2 87 -
02:04 16,0 13,8 11,0 WSW 13,0 1014,2 87 -
02:09 16,0 13,8 9,0 WSW 12,0 1014,2 87 -
02:14 15,9 13,7 10,0 WSW 12,0 1014,2 87 -
02:19 15,9 13,7 10,0 West 12,0 1014,2 87 -
02:24 15,9 13,7 9,0 WSW 15,0 1014,3 87 -
02:29 15,8 13,6 11,0 West 13,0 1014,3 87 -
02:34 15,8 13,6 9,0 WSW 11,0 1014,3 87 -
02:39 15,8 13,6 10,0 WSW 12,0 1014,3 87 -
02:44 15,7 13,6 8,0 SW 10,0 1014,3 88 -
02:49 15,7 13,7 11,0 WSW 14,0 1014,3 88 -
02:54 15,7 13,7 8,0 WSW 11,0 1014,3 88 -
02:59 15,7 13,7 11,0 WSW 19,0 1014,3 88 -
03:04 15,7 13,7 11,0 WSW 14,0 1014,3 88 -
03:09 15,7 13,7 11,0 WSW 14,0 1014,3 88 -
03:14 15,6 13,6 8,0 SW 12,0 1014,3 88 -
03:19 15,6 13,6 13,0 WSW 21,0 1014,3 88 -
03:24 15,6 13,6 8,0 West 12,0 1014,3 88 -
03:29 15,6 13,6 7,0 West 12,0 1014,4 88 -
03:34 15,5 13,5 8,0 West 10,0 1014,4 88 -
03:39 15,5 13,5 10,0 WSW 16,0 1014,4 88 -
03:44 15,5 13,5 9,0 WSW 13,0 1014,4 88 -
03:49 15,4 13,4 8,0 West 12,0 1014,4 88 -
03:54 15,4 13,4 9,0 West 12,0 1014,4 88 -
03:59 15,4 13,4 6,0 WSW 8,0 1013,3 88 -
04:04 15,4 13,4 7,0 SW 11,0 1013,3 88 -
04:09 15,4 13,4 8,0 SW 8,0 1013,3 88 -
04:14 15,3 13,3 6,0 WNW 8,0 1014,4 88 -
04:19 15,3 13,3 6,0 West 10,0 1014,4 88 -
04:24 15,3 13,3 8,0 WSW 12,0 1014,4 88 -
04:29 15,3 13,3 9,0 SW 12,0 1014,4 88 -
04:34 15,3 13,3 9,0 SW 12,0 1014,4 88 -
04:39 15,3 13,3 5,0 SW 8,0 1014,4 88 -
04:44 15,3 13,3 6,0 WSW 8,0 1014,4 88 -
04:49 15,3 13,3 6,0 SW 7,0 1014,4 88 -
04:54 15,3 13,3 7,0 SW 11,0 1014,4 88 -
04:59 15,3 13,3 7,0 WSW 11,0 1014,4 88 -
05:04 15,3 13,3 9,0 SW 12,0 1014,4 88 -
05:09 15,3 13,3 10,0 SW 16,0 1014,5 88 -
05:14 15,2 13,2 10,0 SW 14,0 1014,5 88 -
05:19 15,2 13,2 11,0 SW 14,0 1014,5 88 -

Download your copy of this data-set  here

Our weather-data as stored at Weather Underground. Script developed by Jim McMurry. Rewritten for template use Leuven-Template